createdAt,value
2018-07-03T00:01:51.879Z,13.10
2018-07-03T00:04:33.599Z,13.10
2018-07-03T00:07:14.897Z,13.10
2018-07-03T00:09:57.421Z,13.10
2018-07-03T00:12:38.847Z,13.10
2018-07-03T00:15:20.216Z,13.00
2018-07-03T00:18:02.248Z,13.00
2018-07-03T00:20:43.631Z,13.00
2018-07-03T00:23:24.952Z,12.90
2018-07-03T00:26:06.523Z,12.90
2018-07-03T00:28:48.072Z,12.90
2018-07-03T00:31:30.225Z,12.90
2018-07-03T00:34:11.563Z,12.80
2018-07-03T00:36:53.036Z,12.80
2018-07-03T00:39:34.255Z,12.80
2018-07-03T00:42:15.661Z,12.70
2018-07-03T00:44:57.798Z,12.70
2018-07-03T00:47:39.372Z,12.70
2018-07-03T00:50:20.846Z,12.70
2018-07-03T00:53:02.228Z,12.70
2018-07-03T00:55:43.621Z,12.60
2018-07-03T00:58:25.126Z,12.60
2018-07-03T01:01:06.630Z,12.70
2018-07-03T01:03:48.728Z,12.70
2018-07-03T01:06:30.893Z,12.70
2018-07-03T01:09:12.112Z,12.60
2018-07-03T01:11:53.500Z,12.60
2018-07-03T01:14:34.836Z,12.60
2018-07-03T01:17:16.325Z,12.60
2018-07-03T01:19:59.383Z,12.60
2018-07-03T01:22:40.767Z,12.60
2018-07-03T01:25:22.140Z,12.60
2018-07-03T01:28:03.658Z,12.60
2018-07-03T01:30:45.308Z,12.60
2018-07-03T01:33:27.315Z,12.60
2018-07-03T01:36:08.847Z,12.60
2018-07-03T01:38:50.195Z,12.60
2018-07-03T01:41:31.799Z,12.60
2018-07-03T01:44:13.185Z,12.50
2018-07-03T01:46:54.588Z,12.50
2018-07-03T01:49:36.167Z,12.50
2018-07-03T01:52:17.909Z,12.40
2018-07-03T01:54:59.978Z,12.40
2018-07-03T01:57:41.322Z,12.40
2018-07-03T02:03:44.916Z,12.40
2018-07-03T02:06:26.792Z,12.40
2018-07-03T02:09:09.980Z,12.40
2018-07-03T02:11:52.144Z,12.30
2018-07-03T02:14:33.644Z,12.30
2018-07-03T02:17:15.691Z,12.30
2018-07-03T02:19:56.879Z,12.30
2018-07-03T02:22:38.632Z,12.20
2018-07-03T02:25:19.964Z,12.20
2018-07-03T02:28:01.256Z,12.20
2018-07-03T02:30:42.618Z,12.20
2018-07-03T02:33:23.983Z,12.20
2018-07-03T02:36:05.464Z,12.20
2018-07-03T02:38:47.039Z,12.20
2018-07-03T02:41:28.368Z,12.20
2018-07-03T02:44:09.648Z,12.20
2018-07-03T02:46:51.230Z,12.20
2018-07-03T02:49:33.628Z,12.20
2018-07-03T02:52:15.122Z,12.20
2018-07-03T02:54:57.626Z,12.20
2018-07-03T02:57:39.120Z,12.10
2018-07-03T03:00:25.988Z,12.10
2018-07-03T03:03:07.434Z,12.10
2018-07-03T03:05:48.856Z,12.10
2018-07-03T03:08:31.379Z,12.10
2018-07-03T03:11:16.418Z,12.10
2018-07-03T03:13:57.748Z,12.10
2018-07-03T03:16:39.082Z,12.10
2018-07-03T03:19:21.231Z,12.10
2018-07-03T03:22:03.344Z,12.10
2018-07-03T03:24:45.026Z,12.10
2018-07-03T03:27:26.709Z,12.10
2018-07-03T03:30:09.240Z,12.10
2018-07-03T03:32:51.099Z,12.10
2018-07-03T03:35:32.773Z,12.10
2018-07-03T03:38:14.196Z,12.10
2018-07-03T03:40:56.089Z,12.10
2018-07-03T03:43:37.656Z,12.10
2018-07-03T03:46:19.155Z,12.10
2018-07-03T03:49:00.739Z,12.10
2018-07-03T03:51:42.141Z,12.10
2018-07-03T03:54:23.907Z,12.20
2018-07-03T03:57:06.309Z,12.20
2018-07-03T03:59:47.484Z,12.20
2018-07-03T04:02:28.816Z,12.20
2018-07-03T04:05:10.165Z,12.20
2018-07-03T04:07:52.109Z,12.20
2018-07-03T04:10:33.742Z,12.30
2018-07-03T04:13:14.975Z,12.30
2018-07-03T04:15:56.836Z,12.30
2018-07-03T04:18:38.271Z,12.30
2018-07-03T04:21:21.016Z,12.30
2018-07-03T04:24:02.417Z,12.40
2018-07-03T04:26:43.808Z,12.50
2018-07-03T04:29:26.758Z,12.60
2018-07-03T04:32:08.171Z,12.70
2018-07-03T04:34:49.512Z,12.80
2018-07-03T04:37:31.185Z,12.90
2018-07-03T04:40:12.584Z,13.00
2018-07-03T04:42:55.491Z,13.10
2018-07-03T04:45:40.619Z,13.10
2018-07-03T04:48:22.588Z,13.20
2018-07-03T04:51:04.034Z,13.30
2018-07-03T04:53:45.235Z,13.30
2018-07-03T04:56:28.383Z,13.30
2018-07-03T04:59:10.836Z,13.40
2018-07-03T05:01:52.701Z,13.50
2018-07-03T05:04:34.041Z,13.60
2018-07-03T05:07:15.458Z,13.70
2018-07-03T05:09:56.773Z,13.70
2018-07-03T05:12:38.519Z,13.80
2018-07-03T05:15:21.119Z,13.90
2018-07-03T05:18:02.628Z,14.00
2018-07-03T05:20:44.287Z,14.10
2018-07-03T05:23:26.787Z,14.10
2018-07-03T05:26:08.483Z,14.20
2018-07-03T05:28:49.924Z,14.30
2018-07-03T05:31:31.703Z,14.30
2018-07-03T05:34:13.200Z,14.40
2018-07-03T05:36:55.021Z,14.50
2018-07-03T05:39:36.448Z,14.50
2018-07-03T05:42:17.939Z,14.50
2018-07-03T05:44:59.920Z,14.60
2018-07-03T05:47:41.449Z,14.60
2018-07-03T05:50:23.961Z,14.60
2018-07-03T05:53:05.952Z,14.70
2018-07-03T05:55:47.464Z,14.70
2018-07-03T05:58:28.743Z,14.80
2018-07-03T06:01:10.461Z,14.80
2018-07-03T06:03:52.956Z,14.90
2018-07-03T06:06:34.518Z,15.00
2018-07-03T06:09:16.702Z,15.00
2018-07-03T06:11:58.233Z,15.10
2018-07-03T06:14:39.762Z,15.20
2018-07-03T06:17:22.080Z,15.30
2018-07-03T06:20:04.375Z,15.40
2018-07-03T06:22:49.671Z,15.50
2018-07-03T06:25:31.035Z,15.60
2018-07-03T06:28:12.378Z,15.60
2018-07-03T06:30:58.738Z,15.70
2018-07-03T06:33:40.236Z,15.80
2018-07-03T06:36:23.844Z,15.90
2018-07-03T06:39:11.257Z,16.00
2018-07-03T06:41:54.052Z,16.10
2018-07-03T06:44:36.436Z,16.20
2018-07-03T06:47:18.632Z,16.30
2018-07-03T06:50:02.591Z,16.40
2018-07-03T06:52:44.301Z,16.50
2018-07-03T06:55:26.163Z,16.60
2018-07-03T06:58:07.487Z,16.70
2018-07-03T07:00:51.027Z,16.90
2018-07-03T07:03:32.325Z,17.00
2018-07-03T07:06:14.665Z,17.10
2018-07-03T07:08:56.795Z,17.30
2018-07-03T07:11:38.171Z,17.40
2018-07-03T07:14:20.090Z,17.50
2018-07-03T07:17:01.507Z,17.60
2018-07-03T07:19:42.825Z,17.80
2018-07-03T07:22:25.025Z,17.90
2018-07-03T07:25:06.448Z,18.00
2018-07-03T07:27:47.864Z,18.10
2018-07-03T07:30:29.296Z,18.20
2018-07-03T07:33:10.727Z,18.30
2018-07-03T07:35:54.183Z,18.40
2018-07-03T07:38:35.563Z,18.50
2018-07-03T07:41:17.006Z,18.60
2018-07-03T07:43:58.546Z,18.60
2018-07-03T07:46:39.844Z,18.70
2018-07-03T07:49:23.873Z,18.80
2018-07-03T07:52:08.212Z,18.90
2018-07-03T07:54:49.769Z,19.00
2018-07-03T07:57:31.419Z,19.10
2018-07-03T08:00:14.500Z,19.10
2018-07-03T08:02:58.580Z,19.20
2018-07-03T08:05:39.902Z,19.40
2018-07-03T08:08:22.174Z,19.40
2018-07-03T08:11:03.510Z,19.50
2018-07-03T08:13:44.909Z,19.70
2018-07-03T08:16:27.212Z,19.70
2018-07-03T08:19:08.676Z,19.80
2018-07-03T08:21:51.010Z,20.00
2018-07-03T08:24:32.950Z,20.00
2018-07-03T08:27:14.877Z,20.10
2018-07-03T08:29:56.737Z,20.20
2018-07-03T08:32:39.322Z,20.30
2018-07-03T08:35:21.025Z,20.50
2018-07-03T08:38:02.376Z,20.60
2018-07-03T08:40:44.591Z,20.60
2018-07-03T08:43:27.247Z,20.70
2018-07-03T08:46:09.051Z,21.10
2018-07-03T08:48:52.137Z,21.30
2018-07-03T08:51:33.490Z,21.80
2018-07-03T08:54:15.819Z,22.30
2018-07-03T08:56:57.401Z,22.70
2018-07-03T08:59:38.997Z,22.90
2018-07-03T09:02:20.938Z,23.20
2018-07-03T09:05:02.390Z,23.40
2018-07-03T09:07:43.793Z,23.60
2018-07-03T09:10:26.117Z,23.80
2018-07-03T09:13:08.209Z,23.90
2018-07-03T09:15:49.601Z,23.90
2018-07-03T09:18:31.938Z,23.80
2018-07-03T09:21:13.334Z,23.90
2018-07-03T09:23:56.553Z,24.10
2018-07-03T09:26:57.619Z,24.20
2018-07-03T09:29:39.397Z,24.10
2018-07-03T09:32:21.352Z,24.10
2018-07-03T09:35:02.953Z,24.00
2018-07-03T09:37:44.324Z,24.00
2018-07-03T09:40:27.451Z,24.00
2018-07-03T09:43:08.968Z,23.90
2018-07-03T09:45:51.496Z,23.90
2018-07-03T09:48:32.985Z,23.90
2018-07-03T09:51:14.416Z,23.80
2018-07-03T09:53:57.421Z,23.70
2018-07-03T09:56:38.699Z,23.80
2018-07-03T09:59:20.029Z,23.80
2018-07-03T10:02:01.848Z,23.90
2018-07-03T10:04:43.413Z,23.90
2018-07-03T10:07:25.315Z,23.90
2018-07-03T10:10:06.768Z,23.90
2018-07-03T10:12:48.797Z,24.00
2018-07-03T10:15:30.281Z,24.10
2018-07-03T10:18:11.664Z,24.10
2018-07-03T10:20:54.390Z,24.20
2018-07-03T10:23:35.685Z,24.30
2018-07-03T10:26:17.033Z,24.30
2018-07-03T10:28:59.595Z,24.10
2018-07-03T10:31:41.403Z,24.10
2018-07-03T10:34:24.880Z,23.80
2018-07-03T10:37:06.372Z,24.10
2018-07-03T10:39:47.664Z,24.00
2018-07-03T10:42:29.462Z,23.80
2018-07-03T10:45:10.885Z,23.80
2018-07-03T10:47:56.702Z,24.10
2018-07-03T10:50:38.130Z,24.50
2018-07-03T10:53:20.221Z,24.60
2018-07-03T10:56:01.887Z,24.50
2018-07-03T10:58:43.341Z,24.50
2018-07-03T11:01:27.469Z,24.50
2018-07-03T11:04:08.869Z,24.30
2018-07-03T11:06:50.380Z,24.10
2018-07-03T11:09:32.485Z,23.90
2018-07-03T11:12:16.924Z,23.80
2018-07-03T11:14:59.074Z,23.90
2018-07-03T11:17:40.856Z,23.90
2018-07-03T11:20:23.313Z,23.90
2018-07-03T11:23:04.819Z,23.90
2018-07-03T11:25:47.673Z,24.00
2018-07-03T11:28:31.711Z,24.00
2018-07-03T11:31:13.919Z,24.10
2018-07-03T11:33:56.209Z,24.10
2018-07-03T11:36:37.821Z,24.10
2018-07-03T11:39:20.004Z,24.10
2018-07-03T11:42:01.701Z,24.10
2018-07-03T11:44:43.074Z,24.20
2018-07-03T11:47:25.473Z,24.10
2018-07-03T11:50:07.657Z,24.10
2018-07-03T11:52:49.829Z,24.10
2018-07-03T11:55:31.768Z,24.40
2018-07-03T11:58:13.200Z,24.30
2018-07-03T12:00:56.050Z,24.00
2018-07-03T12:03:38.503Z,23.90
2018-07-03T12:06:21.860Z,24.00
2018-07-03T12:09:05.676Z,23.70
2018-07-03T12:11:47.993Z,23.50
2018-07-03T12:14:29.965Z,23.50
2018-07-03T12:17:11.287Z,23.70
2018-07-03T12:19:54.643Z,23.80
2018-07-03T12:22:36.450Z,23.60
2018-07-03T12:25:17.937Z,23.40
2018-07-03T12:27:59.924Z,23.40
2018-07-03T12:30:42.038Z,23.40
2018-07-03T12:33:24.381Z,23.30
2018-07-03T12:36:08.111Z,23.30
2018-07-03T12:38:52.520Z,23.60
2018-07-03T12:41:39.499Z,23.90
2018-07-03T12:44:21.743Z,24.00
2018-07-03T12:47:03.148Z,23.80
2018-07-03T12:51:31.827Z,23.60
2018-07-03T12:54:14.447Z,23.80
2018-07-03T12:56:56.548Z,24.00
2018-07-03T12:59:38.027Z,24.10
2018-07-03T13:02:19.440Z,24.10
2018-07-03T13:05:02.211Z,24.20
2018-07-03T13:07:44.502Z,24.20
2018-07-03T13:10:26.745Z,24.10
2018-07-03T13:13:08.137Z,23.90
2018-07-03T13:15:49.903Z,23.80
2018-07-03T13:18:32.417Z,23.90
2018-07-03T13:21:16.500Z,24.00
2018-07-03T13:23:58.158Z,24.10
2018-07-03T13:26:40.031Z,24.00
2018-07-03T13:29:27.788Z,23.70
2018-07-03T13:32:09.199Z,23.50
2018-07-03T13:34:51.561Z,23.50
2018-07-03T13:37:33.897Z,23.40
2018-07-03T13:40:16.257Z,23.50
2018-07-03T13:42:57.774Z,23.60
2018-07-03T13:45:40.095Z,23.70
2018-07-03T13:48:22.465Z,23.70
2018-07-03T13:51:05.072Z,23.70
2018-07-03T13:53:51.789Z,23.60
2018-07-03T13:56:33.443Z,23.70
2018-07-03T13:59:15.473Z,23.80
2018-07-03T14:01:59.596Z,23.70
2018-07-03T14:04:41.463Z,23.80
2018-07-03T14:07:24.427Z,23.70
2018-07-03T14:10:05.835Z,23.70
2018-07-03T14:12:56.139Z,23.60
2018-07-03T14:15:37.791Z,23.60
2018-07-03T14:18:25.066Z,23.70
2018-07-03T14:21:06.493Z,23.80
2018-07-03T14:23:48.852Z,23.80
2018-07-03T14:26:30.207Z,23.80
2018-07-03T14:29:11.556Z,23.90
2018-07-03T14:31:55.422Z,23.80
2018-07-03T14:34:36.834Z,23.70
2018-07-03T14:37:18.321Z,23.80
2018-07-03T14:39:59.832Z,23.90
2018-07-03T14:42:41.553Z,23.70
2018-07-03T14:45:24.696Z,23.50
2018-07-03T14:48:06.991Z,23.50
2018-07-03T14:50:49.213Z,23.60
2018-07-03T14:53:31.541Z,23.70
2018-07-03T14:56:13.968Z,23.60
2018-07-03T14:58:56.173Z,23.70
2018-07-03T15:01:38.372Z,23.70
2018-07-03T15:04:21.711Z,23.70
2018-07-03T15:07:04.309Z,23.60
2018-07-03T15:09:45.780Z,23.50
2018-07-03T15:12:27.268Z,23.40
2018-07-03T15:15:08.622Z,23.50
2018-07-03T15:17:51.644Z,23.60
2018-07-03T15:20:34.744Z,23.70
2018-07-03T15:23:16.134Z,23.60
2018-07-03T15:25:58.006Z,23.50
2018-07-03T15:28:39.553Z,23.50
2018-07-03T15:31:21.552Z,23.50
2018-07-03T15:34:06.328Z,23.60
2018-07-03T15:36:47.877Z,23.60
2018-07-03T15:39:31.630Z,23.70
2018-07-03T15:42:14.648Z,23.90
2018-07-03T15:45:14.857Z,23.90
2018-07-03T15:47:56.645Z,23.80
2018-07-03T15:50:37.913Z,23.70
2018-07-03T15:53:20.272Z,24.10
2018-07-03T15:56:01.659Z,24.00
2018-07-03T15:58:43.804Z,23.60
2018-07-03T16:01:26.160Z,23.50
2018-07-03T16:05:27.420Z,23.50
2018-07-03T16:09:16.561Z,23.40
2018-07-03T16:11:57.980Z,23.30
2018-07-03T16:14:40.288Z,23.30
2018-07-03T16:17:22.351Z,23.60
2018-07-03T16:20:10.284Z,24.00
2018-07-03T16:22:55.465Z,23.80
2018-07-03T16:25:36.893Z,23.50
2018-07-03T16:28:18.708Z,23.30
2018-07-03T16:31:02.020Z,23.20
2018-07-03T16:33:43.540Z,23.10
2018-07-03T16:36:25.286Z,23.00
2018-07-03T16:39:11.144Z,23.00
2018-07-03T16:45:06.348Z,22.80
2018-07-03T16:47:47.798Z,22.80
2018-07-03T16:50:29.422Z,22.80
2018-07-03T16:53:10.804Z,22.80
2018-07-03T16:55:53.848Z,22.80
2018-07-03T16:58:37.878Z,22.80
2018-07-03T17:01:19.776Z,22.80
2018-07-03T17:04:01.761Z,22.80
2018-07-03T17:06:43.277Z,22.80
2018-07-03T17:09:26.687Z,22.80
2018-07-03T17:12:09.241Z,22.80
2018-07-03T17:14:51.391Z,22.70
2018-07-03T17:17:32.817Z,22.70
2018-07-03T17:20:18.113Z,22.70
2018-07-03T17:22:59.692Z,22.70
2018-07-03T17:25:42.331Z,22.60
2018-07-03T17:28:28.864Z,22.60
2018-07-03T17:31:10.236Z,22.60
2018-07-03T17:33:52.586Z,22.50
2018-07-03T17:36:35.241Z,22.50
2018-07-03T17:39:18.894Z,22.40
2018-07-03T17:42:19.393Z,22.40
2018-07-03T17:46:07.576Z,22.30
2018-07-03T17:48:50.271Z,22.30
2018-07-03T17:51:32.337Z,22.30
2018-07-03T17:54:14.220Z,22.20
2018-07-03T17:56:58.808Z,22.10
2018-07-03T17:59:41.999Z,22.10
2018-07-03T18:02:25.487Z,22.10
2018-07-03T18:05:07.978Z,22.10
2018-07-03T18:07:51.420Z,22.00
2018-07-03T18:10:33.618Z,22.10
2018-07-03T18:13:15.343Z,22.00
2018-07-03T18:15:57.832Z,22.00
2018-07-03T18:18:39.688Z,21.90
2018-07-03T18:21:22.392Z,21.90
2018-07-03T18:24:04.044Z,21.90
2018-07-03T18:26:46.131Z,21.90
2018-07-03T18:29:27.632Z,21.80
2018-07-03T18:32:09.061Z,21.80
2018-07-03T18:34:54.284Z,21.80
2018-07-03T18:37:36.729Z,21.70
2018-07-03T18:40:18.187Z,21.60
2018-07-03T18:42:59.981Z,21.50
2018-07-03T18:45:41.501Z,21.40
2018-07-03T18:48:24.271Z,21.30
2018-07-03T18:51:05.767Z,21.20
2018-07-03T18:53:48.144Z,21.10
2018-07-03T18:56:31.608Z,21.00
2018-07-03T18:59:13.826Z,20.90
2018-07-03T19:01:57.693Z,20.80
2018-07-03T19:04:42.783Z,20.70
2018-07-03T19:07:25.803Z,20.60
2018-07-03T19:10:08.048Z,20.50
2018-07-03T19:12:50.302Z,20.40
2018-07-03T19:15:31.886Z,20.30
2018-07-03T19:18:15.053Z,20.30
2018-07-03T19:20:57.275Z,20.20
2018-07-03T19:23:40.008Z,20.10
2018-07-03T19:26:23.201Z,20.00
2018-07-03T19:29:04.932Z,20.00
2018-07-03T19:31:46.975Z,19.90
2018-07-03T19:34:28.991Z,19.90
2018-07-03T19:37:10.726Z,19.80
2018-07-03T19:39:56.352Z,19.70
2018-07-03T19:42:51.384Z,19.70
2018-07-03T19:45:32.728Z,19.60
2018-07-03T19:48:18.071Z,19.50
2018-07-03T19:50:59.573Z,19.40
2018-07-03T19:53:41.389Z,19.30
2018-07-03T19:56:24.120Z,19.30
2018-07-03T19:59:06.132Z,19.20
2018-07-03T20:01:48.855Z,19.20
2018-07-03T20:04:32.993Z,19.10
2018-07-03T20:07:15.564Z,19.10
2018-07-03T20:09:58.492Z,19.00
2018-07-03T20:12:41.125Z,18.90
2018-07-03T20:15:24.355Z,18.90
2018-07-03T20:18:06.160Z,18.90
2018-07-03T20:20:51.259Z,18.80
2018-07-03T20:23:34.268Z,18.70
2018-07-03T20:26:28.251Z,18.70
2018-07-03T20:29:11.536Z,18.60
2018-07-03T20:31:54.209Z,18.60
2018-07-03T20:34:38.147Z,18.50
2018-07-03T20:37:19.881Z,18.50
2018-07-03T20:40:01.376Z,18.50
2018-07-03T20:42:43.035Z,18.40
2018-07-03T20:45:25.121Z,18.50
2018-07-03T20:48:08.589Z,18.40
2018-07-03T20:50:51.336Z,18.40
2018-07-03T20:53:33.038Z,18.40
2018-07-03T20:56:16.111Z,18.30
2018-07-03T20:58:57.670Z,18.30
2018-07-03T21:01:39.304Z,18.20
2018-07-03T21:04:24.304Z,18.20
2018-07-03T21:07:06.363Z,18.20
2018-07-03T21:09:48.416Z,18.20
2018-07-03T21:12:30.952Z,18.20
2018-07-03T21:15:12.879Z,18.10
2018-07-03T21:17:55.983Z,18.10
2018-07-03T21:20:38.405Z,18.10
2018-07-03T21:23:20.308Z,18.10
2018-07-03T21:26:01.807Z,18.20
2018-07-03T21:28:43.733Z,18.20
2018-07-03T21:31:29.558Z,18.20
2018-07-03T21:34:14.985Z,18.20
2018-07-03T21:36:56.604Z,18.20
2018-07-03T21:39:40.013Z,18.20
2018-07-03T21:42:22.947Z,18.20
2018-07-03T21:45:05.141Z,18.20
2018-07-03T21:47:46.919Z,18.20
2018-07-03T21:50:28.647Z,18.20
2018-07-03T21:53:16.479Z,18.10
2018-07-03T21:55:58.006Z,18.10
2018-07-03T21:58:39.417Z,18.10
2018-07-03T22:01:21.866Z,18.10
2018-07-03T22:04:03.680Z,18.10
2018-07-03T22:06:45.209Z,18.00
2018-07-03T22:09:27.230Z,18.00
2018-07-03T22:12:10.063Z,18.00
2018-07-03T22:14:52.118Z,17.90
2018-07-03T22:17:34.482Z,17.90
2018-07-03T22:20:16.486Z,17.90
2018-07-03T22:22:58.202Z,17.90
2018-07-03T22:25:39.992Z,17.80
2018-07-03T22:28:23.009Z,17.80
2018-07-03T22:31:04.729Z,17.80
2018-07-03T22:33:46.162Z,17.80
2018-07-03T22:36:28.505Z,17.70
2018-07-03T22:39:10.694Z,17.70
2018-07-03T22:41:53.796Z,17.70
2018-07-03T22:44:35.648Z,17.60
2018-07-03T22:47:18.339Z,17.60
2018-07-03T22:49:59.949Z,17.50
2018-07-03T22:52:41.360Z,17.50
2018-07-03T22:55:23.929Z,17.50
2018-07-03T22:58:05.388Z,17.40
2018-07-03T23:00:46.931Z,17.40
2018-07-03T23:03:29.104Z,17.40
2018-07-03T23:06:11.013Z,17.40
2018-07-03T23:08:53.698Z,17.30
2018-07-03T23:11:35.817Z,17.30
2018-07-03T23:14:17.822Z,17.30
2018-07-03T23:16:59.693Z,17.20
2018-07-03T23:19:42.236Z,17.20
2018-07-03T23:22:25.268Z,17.20
2018-07-03T23:25:06.729Z,17.10
2018-07-03T23:27:48.291Z,17.10
2018-07-03T23:30:30.492Z,17.00
2018-07-03T23:33:15.556Z,17.00
2018-07-03T23:35:58.668Z,16.90
2018-07-03T23:38:40.132Z,16.90
2018-07-03T23:41:22.040Z,16.80
2018-07-03T23:44:03.449Z,16.80
2018-07-03T23:47:02.821Z,16.70
2018-07-03T23:50:07.797Z,16.70
2018-07-03T23:53:12.511Z,16.60
2018-07-03T23:56:16.912Z,16.60
2018-07-03T23:59:22.097Z,16.50
